Flight Track Log - Related Links

Times and Time Zones

All times are in EDT time to prevent confusion due to time zone crossing. See the TAM3130 flight status page for this flight to view local times or setup timezone preferences in your user account.

Time Position Orientation Groundspeed Altitude Reporting Facility
EDT Latitude Longitude Course Direction KTS MPH feet Rate Location/Type
Sat 07:18:56 AM -23.6240 -46.6600 112° Southeast  Level FlightAware ADS-B
Sat 07:22:00 AM -23.4988 -46.4083 62° Northeast  Level Estimated
Sat 07:23:00 AM -23.4473 -46.3050 61° Northeast  Level Estimated
Sat 07:24:00 AM -23.3957 -46.2018 61° Northeast  Level Estimated
Sat 07:24:06 AM -23.6230 -46.6600 61° Northeast  Level FlightAware ADS-B
Sat 07:26:05 AM -23.6210 -46.6610 360° North 671 Level FlightAware ADS-B
Sat 07:27:43 AM -23.6200 -46.6610 360° North 1,125 Level FlightAware ADS-B
Sat 07:29:01 AM -23.6430 -46.6450 147° Southeast 161 185 3,300 2,512 Climbing FlightAware ADS-B
Sat 07:29:09 AM -23.6470 -46.6400 131° Southeast 161 185 3,600 2,000 Climbing FlightAware ADS-B
Sat 07:29:13 AM -23.6490 -46.6380 138° Southeast 162 186 3,700 1,500 Climbing FlightAware ADS-B
Sat 07:29:21 AM -23.6500 -46.6310 99° East 168 193 3,900 1,200 Climbing FlightAware ADS-B
Sat 07:29:23 AM -23.6500 -46.6290 90° East 173 199 3,900 1,250 Level FlightAware ADS-B
Sat 07:29:45 AM -23.6510 -46.6090 93° East 203 234 4,400 1,571 Climbing FlightAware ADS-B
Sat 07:30:05 AM -23.6580 -46.5890 111° Southeast 212 244 5,000 1,625 Climbing FlightAware ADS-B
Sat 07:30:33 AM -23.6540 -46.5570 82° East 243 280 5,700 1,500 Climbing FlightAware ADS-B
Sat 07:30:53 AM -23.6490 -46.5310 78° East 271 312 6,200 2,286 Climbing FlightAware ADS-B
Sat 07:31:15 AM -23.6450 -46.5010 82° East 282 325 7,300 3,000 Climbing FlightAware ADS-B
Sat 07:31:31 AM -23.6420 -46.4780 82° East 288 331 8,100 3,167 Climbing FlightAware ADS-B
Sat 07:31:51 AM -23.6390 -46.4490 84° East 291 335 9,200 3,643 Climbing FlightAware ADS-B
Sat 07:31:59 AM -23.6370 -46.4370 80° East 283 326 9,800 4,500 Climbing FlightAware ADS-B
Sat 07:32:11 AM -23.6310 -46.4220 66° East 276 318 10,700 4,085 Climbing FlightAware ADS-B
Sat 07:32:46 AM -23.6140 -46.3820 65° Northeast 245 282 13,000 3,042 Climbing FlightAware ADS-B
Sat 07:33:22 AM -23.5960 -46.3380 66° East 263 303 14,300 2,382 Climbing FlightAware ADS-B
Sat 07:33:54 AM -23.5800 -46.2990 66° East 265 305 15,700 2,382 Climbing FlightAware ADS-B
Sat 07:34:30 AM -23.5610 -46.2550 65° Northeast 268 308 17,000 1,973 Climbing FlightAware ADS-B
Sat 07:35:07 AM -23.5420 -46.2090 66° East 286 329 18,100 1,562 Climbing FlightAware ADS-B
Sat 07:35:43 AM -23.5220 -46.1610 66° East 310 357 18,900 1,075 Climbing FlightAware ADS-B
Sat 07:36:14 AM -23.5020 -46.1130 66° East 341 392 19,300 806 Climbing FlightAware ADS-B
Sat 07:36:50 AM -23.4770 -46.0540 65° Northeast 375 432 19,800 740 Climbing FlightAware ADS-B
Sat 07:37:27 AM -23.4500 -45.9910 65° Northeast 405 466 20,200 1,063 Climbing FlightAware ADS-B
Sat 07:38:09 AM -23.4200 -45.9200 65° Northeast 417 480 21,200 1,467 Climbing FlightAware ADS-B
Sat 07:38:57 AM -23.3800 -45.8240 66° East 428 493 22,400 1,446 Climbing FlightAware ADS-B
Sat 07:39:32 AM -23.3530 -45.7600 65° Northeast 439 505 23,200 1,280 Climbing FlightAware ADS-B
Sat 07:40:12 AM -23.3180 -45.6760 66° East 452 520 24,000 1,478 Climbing FlightAware ADS-B
Sat 07:40:41 AM -23.2920 -45.6170 64° Northeast 453 521 24,900 1,545 Climbing FlightAware ADS-B
Sat 07:41:18 AM -23.2610 -45.5420 66° East 460 529 25,700 1,315 Climbing FlightAware ADS-B
Sat 07:41:54 AM -23.2320 -45.4750 65° Northeast 465 535 26,500 1,500 Climbing FlightAware ADS-B
Sat 07:42:30 AM -23.1880 -45.3720 65° Northeast 473 544 27,500 1,360 Climbing FlightAware ADS-B
Sat 07:43:09 AM -23.1510 -45.2850 65° Northeast 483 556 28,200 1,043 Climbing FlightAware ADS-B
Sat 07:43:39 AM -23.1220 -45.2180 65° Northeast 489 563 28,700 1,000 Climbing FlightAware ADS-B
Sat 07:44:15 AM -23.0930 -45.1360 69° East 499 574 29,300 1,099 Climbing FlightAware ADS-B
Sat 07:44:50 AM -23.0720 -45.0530 75° East 501 577 30,000 1,114 Climbing FlightAware ADS-B
Sat 07:45:25 AM -23.0530 -44.9640 77° East 507 583 30,600 1,216 Climbing FlightAware ADS-B
Sat 07:46:04 AM -23.0320 -44.8650 77° East 507 583 31,500 1,280 Climbing FlightAware ADS-B
Sat 07:46:40 AM -23.0120 -44.7770 76° East 508 585 32,200 1,183 Climbing FlightAware ADS-B
Sat 07:47:15 AM -22.9940 -44.6940 77° East 508 585 32,900 1,292 Climbing FlightAware ADS-B
Sat 07:47:45 AM -22.9770 -44.6170 77° East 508 585 33,600 750 Climbing FlightAware ADS-B
Sat 07:48:19 AM -22.9580 -44.5300 77° East 519 597 33,700 343 Climbing FlightAware ADS-B
Sat 07:48:55 AM -22.9330 -44.4410 73° East 524 603 34,000 800 Climbing FlightAware ADS-B
Sat 07:49:34 AM -22.8810 -44.3530 57° Northeast 525 604 34,700 857 Climbing FlightAware ADS-B
Sat 07:50:05 AM -22.8410 -44.2870 57° Northeast 524 603 35,000 257 Climbing FlightAware ADS-B
Sat 07:50:44 AM -22.7880 -44.1990 57° Northeast 519 597 35,000  Level FlightAware ADS-B
Sat 07:51:19 AM -22.7470 -44.1300 57° Northeast 521 600 35,000  Level FlightAware ADS-B
Sat 07:51:49 AM -22.7020 -44.0560 57° Northeast 522 601 35,000  Level FlightAware ADS-B
Sat 07:52:25 AM -22.6550 -43.9780 57° Northeast 520 598 35,000  Level FlightAware ADS-B
Sat 07:53:04 AM -22.6040 -43.8920 57° Northeast 518 596 35,000  Level FlightAware ADS-B
Sat 07:53:35 AM -22.5640 -43.8270 56° Northeast 519 597 35,000  Level FlightAware ADS-B
Sat 07:54:12 AM -22.5120 -43.7410 57° Northeast 521 600 35,000  Level FlightAware ADS-B
Sat 07:54:48 AM -22.4650 -43.6630 57° Northeast 521 600 35,000  Level FlightAware ADS-B
Sat 07:55:24 AM -22.4160 -43.5830 56° Northeast 520 598 35,000  Level FlightAware ADS-B
Sat 07:55:56 AM -22.3740 -43.5130 57° Northeast 520 598 35,000  Level FlightAware ADS-B
Sat 07:56:32 AM -22.3490 -43.4720 57° Northeast 520 598 35,000  Level FlightAware ADS-B
Sat 07:57:03 AM -22.2960 -43.3850 57° Northeast 519 597 35,000  Level FlightAware ADS-B
Sat 07:57:43 AM -22.2490 -43.3090 56° Northeast 518 596 35,000  Level FlightAware ADS-B
Sat 07:58:20 AM -22.1850 -43.2040 57° Northeast 518 596 35,000  Level FlightAware ADS-B
Sat 07:58:52 AM -22.1420 -43.1340 56° Northeast 518 596 35,000  Level FlightAware ADS-B
Sat 07:59:28 AM -22.0940 -43.0550 57° Northeast 518 596 35,000  Level FlightAware ADS-B
Sat 08:00:04 AM -22.0470 -42.9790 56° Northeast 517 595 35,000  Level FlightAware ADS-B
Sat 08:00:36 AM -22.0050 -42.9100 57° Northeast 517 595 35,000  Level FlightAware ADS-B
Sat 08:01:12 AM -21.9560 -42.8310 56° Northeast 521 600 35,000  Level FlightAware ADS-B
Sat 08:01:48 AM -21.9080 -42.7540 56° Northeast 520 598 35,000  Level FlightAware ADS-B
Sat 08:02:24 AM -21.8610 -42.6770 57° Northeast 519 597 35,000  Level FlightAware ADS-B
Sat 08:02:57 AM -21.8180 -42.6070 57° Northeast 522 601 35,000  Level FlightAware ADS-B
Sat 08:03:34 AM -21.7670 -42.5250 56° Northeast 522 601 35,000  Level FlightAware ADS-B
Sat 08:04:10 AM -21.7190 -42.4480 56° Northeast 520 598 35,000  Level FlightAware ADS-B
Sat 08:04:46 AM -21.6710 -42.3710 56° Northeast 521 600 35,000  Level FlightAware ADS-B
Sat 08:05:18 AM -21.6280 -42.3010 57° Northeast 521 600 35,000  Level FlightAware ADS-B
Sat 08:05:54 AM -21.5800 -42.2250 56° Northeast 517 595 35,000  Level FlightAware ADS-B
Sat 08:06:26 AM -21.5390 -42.1580 57° Northeast 516 594 35,000  Level FlightAware ADS-B
Sat 08:06:59 AM -21.5120 -42.1150 56° Northeast 517 595 35,000  Level FlightAware ADS-B
Sat 08:07:40 AM -21.4670 -42.0430 56° Northeast 514 592 35,000  Level FlightAware ADS-B
Sat 08:08:22 AM -21.3830 -41.9090 56° Northeast 515 593 35,000  Level FlightAware ADS-B
Sat 08:08:54 AM -21.3410 -41.8410 56° Northeast 516 594 35,000 -600 Level FlightAware ADS-B
Sat 08:09:32 AM -21.2900 -41.7610 56° Northeast 516 594 34,300 -1,853 Descending FlightAware ADS-B
Sat 08:10:02 AM -21.2500 -41.6980 56° Northeast 515 593 32,900 -2,676 Descending FlightAware ADS-B
Sat 08:10:46 AM -21.1980 -41.6160 56° Northeast 510 587 31,000 -3,395 Descending FlightAware ADS-B
Sat 08:11:18 AM -21.1580 -41.5510 57° Northeast 524 603 28,600 -4,027 Descending FlightAware ADS-B
Sat 08:11:59 AM -21.1100 -41.4750 56° Northeast 525 604 26,100 -1,923 Descending FlightAware ADS-B
Sat 08:12:36 AM -21.0660 -41.4080 55° Northeast 525 604 26,100  Level FlightAware ADS-B
Sat 08:13:12 AM -21.0230 -41.3430 55° Northeast 525 604 26,100 -1,760 Level FlightAware ADS-B
Sat 08:13:51 AM -21.0320 -41.3530 226° Southwest 956 1100 23,900 -3,188 Descending FlightAware ADS-B
Sat 08:14:16 AM -21.0040 -41.3080 56° Northeast 484 557 22,700 -3,263 Descending FlightAware ADS-B
Sat 08:14:48 AM -20.9540 -41.2290 56° Northeast 471 542 20,800 -2,795 Descending FlightAware ADS-B
Sat 08:15:29 AM -20.8950 -41.1370 56° Northeast 440 506 19,300 -1,630 Descending FlightAware ADS-B
Sat 08:16:09 AM -20.8510 -41.0680 56° Northeast 401 461 18,600 -1,068 Descending FlightAware ADS-B
Sat 08:16:42 AM -20.8200 -41.0180 56° Northeast 375 432 18,000 -1,385 Descending FlightAware ADS-B
Sat 08:17:14 AM -20.7870 -40.9670 55° Northeast 359 413 17,100 -1,726 Descending FlightAware ADS-B
Sat 08:17:55 AM -20.7510 -40.9100 56° Northeast 346 398 15,900 -1,295 Descending FlightAware ADS-B
Sat 08:18:42 AM -20.7110 -40.8490 55° Northeast 343 395 15,200 -1,200 Descending FlightAware ADS-B
Sat 08:19:15 AM -20.6820 -40.8060 54° Northeast 309 356 14,300 -1,385 Descending FlightAware ADS-B
Sat 08:19:47 AM -20.6530 -40.7710 48° Northeast 296 341 13,700 -1,125 Descending FlightAware ADS-B
Sat 08:20:03 AM -20.6410 -40.7500 59° Northeast 291 335 13,400 -842 Descending FlightAware ADS-B
Sat 08:20:44 AM -20.6140 -40.7000 60° Northeast 268 308 12,900 -675 Descending FlightAware ADS-B
Sat 08:21:23 AM -20.5940 -40.6590 62° Northeast 250 288 12,500 -667 Descending FlightAware ADS-B
Sat 08:21:56 AM -20.5770 -40.6260 61° Northeast 238 274 12,100 -554 Descending FlightAware ADS-B
Sat 08:22:28 AM -20.5560 -40.5850 61° Northeast 211 243 11,900 -658 Descending FlightAware ADS-B
Sat 08:23:09 AM -20.5360 -40.5460 61° Northeast 189 217 11,300 -986 Descending FlightAware ADS-B
Sat 08:23:41 AM -20.5230 -40.5200 62° Northeast 189 217 10,700 -1,607 Descending FlightAware ADS-B
Sat 08:24:05 AM -20.5100 -40.4950 61° Northeast 189 217 9,800 -2,250 Descending FlightAware ADS-B
Sat 08:24:13 AM -20.5070 -40.4890 62° Northeast 191 220 9,500 -2,250 Descending FlightAware ADS-B
Sat 08:24:37 AM -20.4970 -40.4690 62° Northeast 198 228 8,600 -2,082 Descending FlightAware ADS-B
Sat 08:25:02 AM -20.4860 -40.4480 61° Northeast 200 230 7,800 -1,902 Descending FlightAware ADS-B
Sat 08:25:18 AM -20.4790 -40.4350 60° Northeast 201 231 7,300 -1,650 Descending FlightAware ADS-B
Sat 08:25:42 AM -20.4690 -40.4190 56° Northeast 197 227 6,700 -1,875 Descending FlightAware ADS-B
Sat 08:25:50 AM -20.4590 -40.4130 29° Northeast 198 228 6,300 -2,250 Descending FlightAware ADS-B
Sat 08:25:58 AM -20.4520 -40.4120 North 198 228 6,100 -1,273 Descending FlightAware ADS-B
Sat 08:26:23 AM -20.4340 -40.4230 330° Northwest 203 234 5,600 -1,171 Descending FlightAware ADS-B
Sat 08:26:39 AM -20.4290 -40.4380 290° West 201 231 5,300 -1,050 Descending FlightAware ADS-B
Sat 08:27:03 AM -20.4380 -40.4580 244° Southwest 188 216 4,900 -1,105 Descending FlightAware ADS-B
Sat 08:27:17 AM -20.4510 -40.4640 203° Southwest 178 205 4,600 -900 Descending FlightAware ADS-B
Sat 08:27:23 AM -20.4530 -40.4640 180° South 176 203 4,600 -1,034 Level FlightAware ADS-B
Sat 08:27:46 AM -20.4690 -40.4580 161° South 170 196 4,100 -1,355 Descending FlightAware ADS-B
Sat 08:27:54 AM -20.4750 -40.4500 129° Southeast 167 192 3,900 -1,125 Descending FlightAware ADS-B
Sat 08:28:02 AM -20.4770 -40.4430 107° East 161 185 3,800 -375 Descending FlightAware ADS-B
Sat 08:28:10 AM -20.4770 -40.4370 90° East 151 174 3,800  Level FlightAware ADS-B
Sat 08:28:39 AM -20.4710 -40.4220 67° East 141 162 3,800  Level FlightAware ADS-B
Sat 08:28:55 AM -20.4650 -40.4170 38° Northeast 139 160 3,800  Level FlightAware ADS-B
Sat 08:29:03 AM -20.4620 -40.4160 17° North 140 161 3,800 -188 Level FlightAware ADS-B
Sat 08:29:27 AM -20.4480 -40.4090 25° Northeast 147 169 3,700 -293 Descending FlightAware ADS-B
Sat 08:29:44 AM -20.4390 -40.4050 23° Northeast 140 161 3,600 -162 Descending FlightAware ADS-B
Sat 08:30:04 AM -20.4250 -40.3970 28° Northeast 136 157 3,600  Level FlightAware ADS-B
Sat 08:30:14 AM -20.4220 -40.3950 32° Northeast 134 154 3,600  Level FlightAware ADS-B
Sat 08:30:36 AM -20.4100 -40.3880 29° Northeast 135 155 3,600 -261 Level FlightAware ADS-B
Sat 08:31:00 AM -20.3990 -40.3800 34° Northeast 135 155 3,400 -585 Descending FlightAware ADS-B
Sat 08:31:17 AM -20.3920 -40.3750 34° Northeast 130 150 3,200 -732 Descending FlightAware ADS-B
Sat 08:31:41 AM -20.3820 -40.3680 33° Northeast 127 146 2,900 -750 Descending FlightAware ADS-B
Sat 08:31:57 AM -20.3750 -40.3640 28° Northeast 128 147 2,700 -649 Descending FlightAware ADS-B
Sat 08:32:18 AM -20.3640 -40.3570 31° Northeast 128 147 2,500 -649 Descending FlightAware ADS-B
Sat 08:32:34 AM -20.3580 -40.3530 32° Northeast 128 147 2,300 -947 Descending FlightAware ADS-B
Sat 08:32:56 AM -20.3440 -40.3440 31° Northeast 128 147 1,900 -1,043 Descending FlightAware ADS-B
Sat 08:33:20 AM -20.3270 -40.3330 31° Northeast 133 153 1,500 -933 Descending FlightAware ADS-B
Sat 08:33:41 AM -20.3170 -40.3260 33° Northeast 132 152 1,200 -811 Descending FlightAware ADS-B
Sat 08:33:57 AM -20.3090 -40.3200 35° Northeast 129 148 1,000 -750 Descending FlightAware ADS-B
Sat 08:34:21 AM -20.2970 -40.3130 29° Northeast 127 146 700 -732 Descending FlightAware ADS-B
Sat 08:34:38 AM -20.2900 -40.3080 34° Northeast 127 146 500 -732 Descending FlightAware ADS-B
Sat 08:35:02 AM -20.2780 -40.3000 32° Northeast 126 145 200 -750 Descending FlightAware ADS-B
Sat 08:35:26 AM -20.2700 -40.2950 30° Northeast 127 146 -500 Descending FlightAware ADS-B
Sat 08:35:43 AM -20.2620 -40.2900 30° Northeast 130 150  Level FlightAware ADS-B
Sat 08:35:50 AM -20.2590 -40.2870 43° Northeast 121 139  Level FlightAware ADS-B
Sat 08:36:23 AM -20.2570 -40.2870 360° North 121 139  Level FlightAware ADS-B
Sat 08:36:47 AM -20.2570 -40.2880 270° West 121 139  Level FlightAware ADS-B
Sat 08:37:34 AM -20.2580 -40.2890 223° Southwest 121 139  Level FlightAware ADS-B
Sat 08:37:58 AM -20.2570 -40.2890 360° North 121 139  Level FlightAware ADS-B
Sat 08:38:24 AM -20.2610 -40.2760 108° East 121 139  Level FlightAware ADS-B
Sat 08:38:56 AM -20.2610 -40.2770 270° West 121 139  Level FlightAware ADS-B
Sat 08:39:11 AM -20.2570 -40.2890 290° West 121 139  Level FlightAware ADS-B
Sat 08:39:45 AM -20.2610 -40.2760 108° East 121 139  Level FlightAware ADS-B
Sat 08:40:17 AM -20.2610 -40.2770 270° West 121 139  Level FlightAware ADS-B
Sat 08:40:49 AM -20.2610 -40.2760 90° East 121 139  Level FlightAware ADS-B
Sat 08:42:08 AM -20.2570 -40.2890 287° West 121 139  Level FlightAware ADS-B
Sat 08:43:00 AM -20.2581 -40.2864 287° West  Level Estimated

Login

Don't have an account? Register now (free) for customized features, flight alerts, and more!